createdAt,value
2018-06-02T00:02:19.465Z,1.70
2018-06-02T00:04:47.275Z,2.47
2018-06-02T00:07:15.633Z,2.10
2018-06-02T00:09:43.895Z,2.67
2018-06-02T00:12:12.232Z,2.00
2018-06-02T00:14:40.547Z,3.67
2018-06-02T00:17:09.359Z,2.00
2018-06-02T00:19:36.973Z,2.87
2018-06-02T00:22:05.265Z,1.80
2018-06-02T00:24:32.836Z,2.77
2018-06-02T00:27:00.460Z,2.07
2018-06-02T00:29:28.096Z,2.57
2018-06-02T00:31:55.850Z,2.20
2018-06-02T00:34:23.751Z,2.50
2018-06-02T00:36:51.473Z,2.70
2018-06-02T00:39:19.120Z,2.13
2018-06-02T00:41:47.090Z,2.97
2018-06-02T00:44:14.950Z,1.83
2018-06-02T00:46:42.616Z,2.67
2018-06-02T00:49:10.244Z,2.00
2018-06-02T00:51:37.942Z,2.40
2018-06-02T00:54:05.579Z,2.10
2018-06-02T00:56:33.249Z,2.70
2018-06-02T00:59:00.979Z,1.97
2018-06-02T01:01:28.773Z,2.60
2018-06-02T01:03:56.409Z,2.53
2018-06-02T01:06:24.909Z,2.37
2018-06-02T01:08:53.409Z,2.30
2018-06-02T01:11:21.057Z,2.07
2018-06-02T01:13:49.655Z,2.23
2018-06-02T01:16:18.072Z,2.17
2018-06-02T01:18:46.365Z,2.57
2018-06-02T01:21:14.959Z,2.20
2018-06-02T01:23:43.406Z,2.60
2018-06-02T01:26:11.121Z,2.20
2018-06-02T01:28:38.761Z,3.70
2018-06-02T01:31:06.547Z,2.40
2018-06-02T01:33:34.164Z,3.10
2018-06-02T01:36:01.922Z,2.53
2018-06-02T01:38:29.846Z,3.00
2018-06-02T01:40:57.552Z,2.80
2018-06-02T01:43:25.680Z,2.80
2018-06-02T01:45:53.516Z,2.80
2018-06-02T01:48:21.305Z,2.77
2018-06-02T01:50:50.267Z,2.93
2018-06-02T01:53:18.830Z,2.73
2018-06-02T01:55:48.184Z,2.73
2018-06-02T01:58:17.284Z,2.90
2018-06-02T02:00:44.920Z,2.63
2018-06-02T02:03:12.604Z,2.70
2018-06-02T02:05:40.880Z,3.07
2018-06-02T02:08:09.057Z,2.70
2018-06-02T02:10:36.715Z,2.80
2018-06-02T02:13:05.121Z,2.57
2018-06-02T02:15:33.634Z,2.37
2018-06-02T02:18:01.880Z,2.60
2018-06-02T02:20:29.884Z,3.10
2018-06-02T02:22:58.094Z,3.23
2018-06-02T02:25:25.654Z,2.43
2018-06-02T02:27:53.213Z,3.10
2018-06-02T02:30:20.801Z,2.30
2018-06-02T02:32:48.380Z,3.13
2018-06-02T02:35:16.072Z,2.63
2018-06-02T02:37:43.709Z,2.83
2018-06-02T02:40:11.284Z,2.20
2018-06-02T02:42:38.857Z,2.47
2018-06-02T02:45:06.462Z,2.47
2018-06-02T02:47:34.100Z,2.70
2018-06-02T02:50:01.787Z,2.63
2018-06-02T02:52:29.473Z,2.30
2018-06-02T02:54:59.657Z,3.07
2018-06-02T02:57:27.970Z,2.30
2018-06-02T02:59:55.582Z,2.70
2018-06-02T03:02:23.143Z,2.30
2018-06-02T03:04:50.754Z,2.77
2018-06-02T03:07:19.112Z,2.17
2018-06-02T03:09:47.732Z,2.60
2018-06-02T03:12:15.359Z,2.23
2018-06-02T03:14:43.611Z,2.00
2018-06-02T03:17:11.191Z,2.00
2018-06-02T03:19:39.353Z,2.30
2018-06-02T03:22:07.743Z,1.87
2018-06-02T03:24:35.318Z,2.00
2018-06-02T03:27:02.925Z,2.10
2018-06-02T03:29:31.460Z,1.93
2018-06-02T03:31:59.017Z,2.23
2018-06-02T03:34:26.588Z,1.93
2018-06-02T03:36:54.180Z,2.23
2018-06-02T03:39:21.745Z,1.80
2018-06-02T03:41:49.304Z,2.70
2018-06-02T03:44:17.012Z,1.77
2018-06-02T03:46:44.747Z,2.60
2018-06-02T03:49:12.307Z,1.97
2018-06-02T03:51:39.973Z,2.10
2018-06-02T03:54:07.575Z,1.80
2018-06-02T03:56:36.204Z,2.10
2018-06-02T03:59:04.441Z,2.07
2018-06-02T04:01:32.988Z,1.97
2018-06-02T04:04:00.523Z,2.13
2018-06-02T04:06:28.682Z,2.00
2018-06-02T04:08:56.939Z,2.30
2018-06-02T04:11:25.021Z,2.17
2018-06-02T04:13:52.550Z,2.70
2018-06-02T04:16:20.808Z,2.13
2018-06-02T04:18:48.436Z,3.30
2018-06-02T04:21:16.781Z,1.80
2018-06-02T04:23:44.895Z,2.70
2018-06-02T04:26:12.467Z,2.63
2018-06-02T04:28:40.779Z,2.77
2018-06-02T04:31:08.311Z,2.30
2018-06-02T04:33:36.572Z,2.33
2018-06-02T04:36:04.120Z,2.13
2018-06-02T04:38:31.842Z,2.73
2018-06-02T04:40:59.447Z,2.57
2018-06-02T04:43:27.011Z,1.90
2018-06-02T04:45:54.563Z,2.70
2018-06-02T04:48:22.277Z,2.57
2018-06-02T04:50:49.807Z,3.43
2018-06-02T04:53:17.517Z,2.10
2018-06-02T04:55:46.096Z,2.80
2018-06-02T04:58:14.221Z,2.20
2018-06-02T05:00:41.788Z,2.47
2018-06-02T05:03:09.364Z,2.10
2018-06-02T05:05:37.474Z,2.97
2018-06-02T05:08:05.759Z,2.03
2018-06-02T05:10:33.379Z,2.20
2018-06-02T05:13:00.929Z,2.77
2018-06-02T05:15:29.506Z,2.40
2018-06-02T05:17:57.049Z,3.10
2018-06-02T05:20:25.274Z,2.07
2018-06-02T05:22:53.448Z,3.10
2018-06-02T05:25:21.004Z,2.10
2018-06-02T05:27:48.547Z,2.67
2018-06-02T05:30:16.792Z,2.00
2018-06-02T05:32:44.490Z,3.97
2018-06-02T05:35:12.065Z,1.97
2018-06-02T05:37:39.719Z,2.90
2018-06-02T05:40:07.270Z,2.17
2018-06-02T05:42:34.843Z,2.23
2018-06-02T05:45:02.623Z,2.20
2018-06-02T05:47:30.163Z,2.10
2018-06-02T05:49:57.708Z,2.47
2018-06-02T05:52:25.295Z,2.20
2018-06-02T05:54:53.723Z,2.67
2018-06-02T05:57:22.184Z,2.07
2018-06-02T05:59:49.777Z,2.33
2018-06-02T06:02:17.377Z,2.00
2018-06-02T06:04:44.977Z,2.60
2018-06-02T06:07:13.331Z,2.03
2018-06-02T06:09:41.537Z,2.93
2018-06-02T06:12:09.095Z,1.90
2018-06-02T06:14:37.141Z,2.50
2018-06-02T06:17:04.766Z,2.23
2018-06-02T06:19:33.207Z,2.03
2018-06-02T06:22:01.872Z,2.40
2018-06-02T06:24:29.415Z,2.00
2018-06-02T06:26:56.977Z,2.23
2018-06-02T06:29:26.049Z,2.07
2018-06-02T06:31:53.615Z,2.17
2018-06-02T06:34:22.388Z,2.47
2018-06-02T06:36:49.948Z,1.77
2018-06-02T06:39:17.543Z,2.50
2018-06-02T06:41:45.256Z,2.10
2018-06-02T06:44:12.845Z,2.43
2018-06-02T06:46:40.542Z,1.77
2018-06-02T06:49:08.227Z,3.57
2018-06-02T06:51:35.760Z,2.10
2018-06-02T06:54:03.378Z,2.37
2018-06-02T06:56:31.614Z,1.97
2018-06-02T06:58:59.896Z,1.97
2018-06-02T07:01:27.462Z,2.10
2018-06-02T07:03:55.010Z,2.33
2018-06-02T07:06:23.081Z,2.63
2018-06-02T07:08:51.264Z,2.33
2018-06-02T07:11:18.823Z,2.10
2018-06-02T07:13:46.453Z,1.83
2018-06-02T07:16:14.831Z,2.40
2018-06-02T07:18:42.368Z,2.07
2018-06-02T07:21:10.491Z,3.47
2018-06-02T07:23:38.665Z,1.90
2018-06-02T07:26:06.229Z,2.30
2018-06-02T07:28:34.634Z,1.80
2018-06-02T07:31:02.339Z,1.80
2018-06-02T07:33:29.896Z,1.70
2018-06-02T07:35:57.464Z,1.90
2018-06-02T07:38:25.029Z,1.80
2018-06-02T07:40:52.711Z,1.73
2018-06-02T07:43:20.373Z,2.37
2018-06-02T07:45:48.063Z,1.90
2018-06-02T07:48:15.672Z,1.93
2018-06-02T07:50:43.385Z,1.70
2018-06-02T07:53:10.973Z,2.83
2018-06-02T07:55:39.378Z,1.80
2018-06-02T07:58:08.399Z,2.63
2018-06-02T08:00:35.990Z,1.80
2018-06-02T08:03:03.712Z,2.70
2018-06-02T08:05:32.081Z,2.00
2018-06-02T08:08:00.527Z,2.00
2018-06-02T08:10:28.083Z,1.73
2018-06-02T08:12:55.701Z,2.07
2018-06-02T08:15:23.911Z,1.80
2018-06-02T08:17:51.462Z,1.70
2018-06-02T08:20:20.020Z,2.00
2018-06-02T08:22:48.482Z,1.60
2018-06-02T08:25:16.160Z,1.77
2018-06-02T08:27:43.691Z,1.50
2018-06-02T08:30:12.005Z,2.30
2018-06-02T08:32:39.547Z,1.70
2018-06-02T08:35:07.112Z,1.60
2018-06-02T08:37:34.692Z,1.50
2018-06-02T08:40:02.467Z,1.80
2018-06-02T08:42:30.054Z,1.50
2018-06-02T08:44:58.016Z,1.77
2018-06-02T08:47:25.573Z,1.50
2018-06-02T08:49:53.135Z,1.60
2018-06-02T08:52:20.715Z,1.87
2018-06-02T08:54:48.965Z,1.60
2018-06-02T08:57:18.602Z,2.03
2018-06-02T08:59:46.260Z,1.40
2018-06-02T09:02:13.838Z,1.77
2018-06-02T09:04:41.438Z,1.40
2018-06-02T09:07:09.701Z,2.47
2018-06-02T09:09:38.294Z,1.70
2018-06-02T09:12:05.836Z,2.30
2018-06-02T09:14:34.244Z,1.90
2018-06-02T09:17:02.044Z,2.17
2018-06-02T09:19:30.104Z,1.50
2018-06-02T09:21:58.083Z,2.20
2018-06-02T09:24:25.615Z,1.63
2018-06-02T09:26:53.160Z,1.73
2018-06-02T09:29:21.223Z,1.90
2018-06-02T09:31:48.828Z,1.50
2018-06-02T09:34:16.566Z,1.80
2018-06-02T09:36:44.172Z,2.30
2018-06-02T09:39:11.973Z,2.00
2018-06-02T09:41:39.542Z,2.53
2018-06-02T09:44:07.217Z,2.00
2018-06-02T09:46:34.804Z,2.63
2018-06-02T09:49:02.453Z,2.50
2018-06-02T09:51:30.050Z,3.17
2018-06-02T09:53:57.622Z,2.23
2018-06-02T09:56:26.071Z,2.20
2018-06-02T09:58:54.133Z,2.30
2018-06-02T10:01:21.729Z,2.20
2018-06-02T10:03:49.276Z,2.47
2018-06-02T10:06:17.762Z,2.30
2018-06-02T10:08:45.806Z,2.77
2018-06-02T10:11:13.547Z,2.27
2018-06-02T10:13:41.082Z,2.60
2018-06-02T10:16:09.272Z,2.10
2018-06-02T10:18:36.824Z,3.20
2018-06-02T10:21:04.703Z,2.30
2018-06-02T10:23:32.951Z,2.70
2018-06-02T10:26:00.487Z,2.53
2018-06-02T10:28:28.074Z,2.57
2018-06-02T10:30:56.530Z,2.20
2018-06-02T10:33:24.084Z,2.47
2018-06-02T10:35:51.604Z,1.90
2018-06-02T10:38:19.206Z,2.27
2018-06-02T10:40:46.885Z,2.30
2018-06-02T10:43:14.446Z,2.37
2018-06-02T10:45:42.031Z,2.57
2018-06-02T10:48:09.589Z,2.30
2018-06-02T10:50:37.147Z,2.80
2018-06-02T10:53:04.752Z,2.37
2018-06-02T10:55:33.166Z,2.70
2018-06-02T10:58:01.405Z,2.00
2018-06-02T11:00:29.040Z,3.23
2018-06-02T11:02:56.586Z,2.30
2018-06-02T11:05:24.925Z,2.40
2018-06-02T11:07:53.028Z,2.23
2018-06-02T11:10:20.628Z,2.50
2018-06-02T11:12:48.201Z,2.13
2018-06-02T11:15:16.881Z,2.20
2018-06-02T11:17:44.445Z,1.90
2018-06-02T11:20:12.653Z,2.50
2018-06-02T11:22:40.705Z,2.20
2018-06-02T11:25:08.276Z,2.00
2018-06-02T11:27:35.836Z,2.20
2018-06-02T11:30:04.103Z,1.90
2018-06-02T11:32:31.662Z,2.13
2018-06-02T11:34:59.219Z,2.27
2018-06-02T11:37:26.818Z,2.80
2018-06-02T11:39:54.465Z,2.10
2018-06-02T11:42:22.180Z,2.57
2018-06-02T11:44:49.771Z,2.10
2018-06-02T11:47:17.468Z,1.83
2018-06-02T11:49:45.040Z,2.23
2018-06-02T11:52:12.617Z,1.80
2018-06-02T11:54:41.353Z,2.07
2018-06-02T11:57:09.555Z,2.20
2018-06-02T11:59:37.813Z,2.10
2018-06-02T12:02:05.437Z,1.90
2018-06-02T12:04:33.076Z,2.23
2018-06-02T12:07:01.059Z,1.87
2018-06-02T12:09:29.015Z,2.40
2018-06-02T12:11:56.592Z,1.93
2018-06-02T12:14:24.144Z,2.30
2018-06-02T12:16:52.387Z,2.00
2018-06-02T12:19:19.924Z,2.07
2018-06-02T12:21:48.347Z,2.00
2018-06-02T12:24:16.016Z,1.80
2018-06-02T12:26:43.607Z,2.20
2018-06-02T12:29:11.787Z,2.00
2018-06-02T12:31:39.390Z,2.10
2018-06-02T12:34:06.952Z,2.10
2018-06-02T12:36:34.519Z,1.80
2018-06-02T12:39:02.180Z,2.13
2018-06-02T12:41:29.750Z,1.80
2018-06-02T12:43:57.367Z,2.20
2018-06-02T12:46:24.996Z,1.83
2018-06-02T12:48:52.556Z,2.50
2018-06-02T12:51:20.155Z,1.80
2018-06-02T12:53:47.890Z,2.30
2018-06-02T12:56:16.711Z,2.10
2018-06-02T12:58:44.947Z,2.10
2018-06-02T13:01:12.506Z,1.90
2018-06-02T13:03:40.100Z,1.70
2018-06-02T13:06:08.456Z,2.57
2018-06-02T13:08:36.794Z,2.00
2018-06-02T13:11:04.354Z,2.30
2018-06-02T13:13:31.946Z,2.20
2018-06-02T13:16:00.244Z,2.30
2018-06-02T13:18:27.802Z,2.20
2018-06-02T13:20:55.993Z,3.13
2018-06-02T13:23:24.149Z,2.10
2018-06-02T13:25:51.737Z,3.07
2018-06-02T13:28:19.302Z,2.33
2018-06-02T13:30:47.594Z,2.40
2018-06-02T13:33:15.152Z,2.10
2018-06-02T13:35:42.773Z,2.40
2018-06-02T13:38:10.358Z,2.77
2018-06-02T13:40:37.922Z,2.40
2018-06-02T13:43:05.512Z,2.53
2018-06-02T13:45:33.362Z,2.60
2018-06-02T13:48:00.920Z,2.67
2018-06-02T13:50:28.468Z,2.37
2018-06-02T13:52:56.095Z,2.73
2018-06-02T13:55:24.581Z,2.27
2018-06-02T13:57:53.232Z,2.80
2018-06-02T14:00:20.788Z,2.23
2018-06-02T14:02:48.341Z,2.50
2018-06-02T14:05:16.663Z,2.40
2018-06-02T14:07:44.214Z,2.33
2018-06-02T14:10:12.450Z,2.83
2018-06-02T14:12:40.016Z,2.43
2018-06-02T14:15:08.245Z,2.83
2018-06-02T14:17:35.795Z,2.67
2018-06-02T14:20:03.955Z,3.50
2018-06-02T14:22:32.145Z,2.50
2018-06-02T14:24:59.701Z,3.10
2018-06-02T14:27:27.252Z,2.50
2018-06-02T14:29:55.567Z,3.00
2018-06-02T14:32:23.143Z,2.50
2018-06-02T14:34:50.938Z,3.20
2018-06-02T14:37:18.519Z,2.20
2018-06-02T14:39:46.239Z,3.07
2018-06-02T14:42:13.786Z,2.20
2018-06-02T14:44:41.513Z,2.37
2018-06-02T14:47:09.063Z,2.70
2018-06-02T14:49:36.619Z,2.30
2018-06-02T14:52:04.236Z,3.53
2018-06-02T14:54:31.797Z,2.43
2018-06-02T14:57:00.017Z,3.57
2018-06-02T14:59:28.314Z,2.53
2018-06-02T15:01:55.923Z,2.93
2018-06-02T15:04:23.469Z,2.50
2018-06-02T15:06:51.521Z,3.90
2018-06-02T15:09:19.987Z,2.27
2018-06-02T15:11:47.610Z,3.10
2018-06-02T15:14:15.156Z,2.37
2018-06-02T15:16:43.601Z,2.33
2018-06-02T15:19:11.179Z,2.43
2018-06-02T15:21:39.463Z,2.50
2018-06-02T15:24:07.096Z,2.70
2018-06-02T15:26:34.648Z,2.50
2018-06-02T15:29:03.141Z,3.00
2018-06-02T15:31:30.677Z,2.60
2018-06-02T15:33:58.239Z,2.70
2018-06-02T15:36:25.802Z,2.57
2018-06-02T15:38:53.337Z,3.17
2018-06-02T15:41:20.897Z,2.70
2018-06-02T15:43:48.504Z,3.87
2018-06-02T15:46:16.261Z,2.77
2018-06-02T15:48:43.799Z,3.90
2018-06-02T15:51:11.413Z,2.70
2018-06-02T15:53:39.279Z,3.43
2018-06-02T15:56:07.431Z,3.00
2018-06-02T15:58:35.717Z,3.23
2018-06-02T16:01:03.383Z,3.87
2018-06-02T16:03:30.985Z,4.93
2018-06-02T16:05:59.374Z,2.87
2018-06-02T16:08:27.725Z,3.10
2018-06-02T16:10:55.298Z,2.80
2018-06-02T16:13:22.857Z,2.53
2018-06-02T16:15:50.985Z,3.43
2018-06-02T16:18:18.536Z,2.43
2018-06-02T16:20:48.099Z,2.83
2018-06-02T16:23:16.552Z,2.43
2018-06-02T16:25:44.106Z,3.00
2018-06-02T16:28:11.640Z,2.70
2018-06-02T16:30:39.612Z,4.47
2018-06-02T16:33:07.160Z,2.63
2018-06-02T16:35:34.811Z,4.70
2018-06-02T16:38:02.431Z,3.73
2018-06-02T16:40:30.135Z,6.67
2018-06-02T16:42:57.670Z,3.80
2018-06-02T16:45:25.493Z,6.63
2018-06-02T16:47:53.042Z,4.77
2018-06-02T16:50:20.586Z,3.50
2018-06-02T16:52:48.160Z,2.70
2018-06-02T16:55:16.564Z,2.90
2018-06-02T16:57:45.111Z,3.40
2018-06-02T17:00:12.649Z,3.60
2018-06-02T17:02:40.209Z,6.10
2018-06-02T17:05:08.578Z,5.63
2018-06-02T17:07:36.136Z,3.30
2018-06-02T17:10:05.166Z,4.00
2018-06-02T17:12:32.737Z,3.00
2018-06-02T17:15:01.060Z,2.80
2018-06-02T17:17:28.765Z,2.87
2018-06-02T17:19:56.798Z,2.40
2018-06-02T17:22:25.225Z,2.90
2018-06-02T17:24:52.784Z,2.70
2018-06-02T17:27:20.389Z,2.80
2018-06-02T17:29:48.728Z,2.90
2018-06-02T17:32:16.348Z,2.60
2018-06-02T17:34:43.900Z,2.80
2018-06-02T17:37:11.501Z,2.63
2018-06-02T17:39:39.072Z,3.37
2018-06-02T17:42:06.775Z,2.43
2018-06-02T17:44:34.513Z,2.90
2018-06-02T17:47:02.187Z,2.50
2018-06-02T17:49:29.782Z,2.70
2018-06-02T17:51:57.343Z,2.50
2018-06-02T17:54:25.003Z,2.70
2018-06-02T17:56:53.211Z,3.00
2018-06-02T17:59:21.679Z,2.60
2018-06-02T18:01:49.232Z,3.30
2018-06-02T18:04:16.787Z,2.53
2018-06-02T18:06:45.155Z,2.90
2018-06-02T18:09:13.209Z,2.50
2018-06-02T18:11:40.750Z,3.10
2018-06-02T18:14:08.328Z,2.87
2018-06-02T18:16:37.803Z,2.80
2018-06-02T18:19:05.356Z,2.50
2018-06-02T18:21:33.696Z,3.07
2018-06-02T18:24:01.265Z,2.70
2018-06-02T18:26:28.877Z,2.77
2018-06-02T18:28:57.065Z,2.93
2018-06-02T18:31:24.636Z,2.73
2018-06-02T18:33:52.164Z,2.90
2018-06-02T18:36:19.733Z,3.00
2018-06-02T18:38:47.460Z,2.60
2018-06-02T18:41:15.008Z,2.60
2018-06-02T18:43:42.803Z,2.60
2018-06-02T18:46:10.370Z,2.80
2018-06-02T18:48:37.905Z,2.90
2018-06-02T18:51:05.494Z,3.40
2018-06-02T18:53:33.113Z,2.80
2018-06-02T18:56:01.488Z,4.43
2018-06-02T18:58:29.760Z,2.50
2018-06-02T19:00:57.411Z,3.27
2018-06-02T19:03:24.937Z,2.53
2018-06-02T19:05:53.215Z,3.27
2018-06-02T19:08:21.480Z,2.83
2018-06-02T19:10:49.047Z,2.80
2018-06-02T19:13:16.626Z,2.73
2018-06-02T19:15:45.237Z,2.87
2018-06-02T19:18:12.839Z,3.33
2018-06-02T19:20:41.056Z,2.73
2018-06-02T19:23:09.293Z,4.03
2018-06-02T19:25:36.979Z,2.60
2018-06-02T19:28:04.578Z,3.23
2018-06-02T19:30:32.700Z,3.10
2018-06-02T19:33:00.271Z,3.60
2018-06-02T19:35:27.872Z,2.57
2018-06-02T19:37:55.627Z,3.30
2018-06-02T19:40:23.210Z,3.00
2018-06-02T19:42:50.814Z,3.10
2018-06-02T19:45:18.542Z,3.20
2018-06-02T19:47:46.209Z,2.80
2018-06-02T19:50:13.755Z,3.07
2018-06-02T19:52:41.371Z,3.20
2018-06-02T19:55:09.686Z,3.80
2018-06-02T19:57:37.827Z,2.97
2018-06-02T20:00:05.429Z,3.73
2018-06-02T20:02:33.034Z,3.40
2018-06-02T20:05:01.496Z,4.33
2018-06-02T20:07:29.055Z,2.90
2018-06-02T20:09:57.245Z,3.80
2018-06-02T20:12:24.786Z,3.33
2018-06-02T20:14:53.326Z,3.60
2018-06-02T20:17:20.907Z,3.63
2018-06-02T20:19:49.113Z,2.77
2018-06-02T20:22:17.552Z,3.60
2018-06-02T20:24:45.087Z,3.37
2018-06-02T20:27:12.623Z,3.67
2018-06-02T20:29:40.957Z,3.07
2018-06-02T20:32:08.525Z,3.10
2018-06-02T20:34:36.077Z,3.80
2018-06-02T20:37:03.756Z,3.23
2018-06-02T20:39:31.297Z,3.93
2018-06-02T20:41:58.879Z,3.07
2018-06-02T20:44:26.471Z,3.80
2018-06-02T20:46:54.026Z,3.20
2018-06-02T20:49:21.611Z,3.53
2018-06-02T20:51:49.187Z,3.13
2018-06-02T20:54:16.865Z,4.00
2018-06-02T20:56:45.459Z,3.80
2018-06-02T20:59:13.786Z,3.37
2018-06-02T21:01:41.359Z,3.77
2018-06-02T21:04:08.933Z,3.50
2018-06-02T21:06:37.071Z,4.63
2018-06-02T21:09:06.662Z,4.07
2018-06-02T21:11:34.226Z,4.37
2018-06-02T21:14:01.822Z,3.37
2018-06-02T21:16:29.927Z,3.73
2018-06-02T21:18:57.529Z,3.27
2018-06-02T21:21:25.594Z,5.40
2018-06-02T21:23:53.872Z,3.60
2018-06-02T21:26:21.458Z,3.90
2018-06-02T21:28:49.715Z,3.70
2018-06-02T21:31:17.477Z,3.40
2018-06-02T21:33:45.056Z,3.53
2018-06-02T21:36:12.673Z,3.70
2018-06-02T21:38:40.229Z,3.50
2018-06-02T21:41:07.795Z,3.53
2018-06-02T21:43:35.377Z,4.60
2018-06-02T21:46:03.107Z,3.57
2018-06-02T21:48:30.687Z,3.90
2018-06-02T21:50:58.277Z,3.50
2018-06-02T21:53:26.014Z,4.50
2018-06-02T21:55:54.034Z,3.83
2018-06-02T21:58:22.565Z,4.57
2018-06-02T22:00:50.130Z,3.87
2018-06-02T22:03:17.820Z,4.00
2018-06-02T22:05:46.165Z,3.83
2018-06-02T22:08:14.444Z,3.97
2018-06-02T22:10:42.006Z,4.20
2018-06-02T22:13:09.619Z,3.67
2018-06-02T22:15:37.986Z,4.33
2018-06-02T22:18:05.586Z,3.50
2018-06-02T22:20:33.961Z,4.47
2018-06-02T22:23:01.916Z,3.73
2018-06-02T22:25:29.478Z,3.90
2018-06-02T22:27:57.022Z,3.60
2018-06-02T22:30:25.352Z,3.80
2018-06-02T22:32:52.897Z,3.87
2018-06-02T22:35:20.446Z,4.20
2018-06-02T22:37:48.023Z,3.60
2018-06-02T22:40:15.599Z,3.80
2018-06-02T22:42:43.136Z,3.90
2018-06-02T22:45:10.754Z,3.73
2018-06-02T22:47:38.304Z,4.23
2018-06-02T22:50:05.919Z,4.10
2018-06-02T22:52:33.609Z,4.80
2018-06-02T22:55:01.877Z,3.67
2018-06-02T22:57:30.235Z,4.97
2018-06-02T22:59:57.883Z,4.00
2018-06-02T23:02:25.458Z,4.43
2018-06-02T23:04:53.473Z,3.70
2018-06-02T23:07:21.644Z,5.23
2018-06-02T23:09:50.196Z,3.77
2018-06-02T23:12:17.795Z,3.93
2018-06-02T23:14:46.212Z,3.50
2018-06-02T23:17:13.809Z,4.03
2018-06-02T23:19:42.283Z,3.93
2018-06-02T23:22:31.078Z,3.70
2018-06-02T23:24:58.613Z,4.00
2018-06-02T23:27:26.176Z,5.03
2018-06-02T23:29:54.736Z,3.67
2018-06-02T23:32:22.277Z,4.10
2018-06-02T23:34:49.822Z,3.57
2018-06-02T23:37:17.562Z,4.10
2018-06-02T23:39:45.111Z,4.03
2018-06-02T23:42:12.651Z,3.73
2018-06-02T23:44:40.235Z,3.63
2018-06-02T23:47:07.774Z,3.80
2018-06-02T23:49:35.335Z,4.00
2018-06-02T23:52:02.991Z,3.83
2018-06-02T23:54:30.610Z,5.17
2018-06-02T23:56:58.980Z,4.00
2018-06-02T23:59:27.135Z,4.87
